sensor_id;sensor_type;location;lat;lon;timestamp;pressure;altitude;pressure_sealevel;temperature;humidity
19023;BME280;35226;48.606;8.858;2023-04-08T00:00:46;96492.28;;;10.29;100.00
19023;BME280;35226;48.606;8.858;2023-04-08T00:03:11;96489.50;;;10.29;100.00
19023;BME280;35226;48.606;8.858;2023-04-08T00:05:36;96491.06;;;10.30;100.00
19023;BME280;35226;48.606;8.858;2023-04-08T00:08:02;96492.28;;;10.29;100.00
19023;BME280;35226;48.606;8.858;2023-04-08T00:10:28;96493.25;;;10.23;100.00
19023;BME280;35226;48.606;8.858;2023-04-08T00:12:53;96491.97;;;10.27;100.00
19023;BME280;35226;48.606;8.858;2023-04-08T00:15:20;96493.41;;;10.32;100.00
19023;BME280;35226;48.606;8.858;2023-04-08T00:17:45;96500.84;;;10.19;100.00
19023;BME280;35226;48.606;8.858;2023-04-08T00:20:11;96498.56;;;10.30;100.00
19023;BME280;35226;48.606;8.858;2023-04-08T00:22:36;96509.06;;;10.22;100.00
19023;BME280;35226;48.606;8.858;2023-04-08T00:25:02;96508.44;;;10.15;100.00
19023;BME280;35226;48.606;8.858;2023-04-08T00:27:31;96509.91;;;10.19;100.00
19023;BME280;35226;48.606;8.858;2023-04-08T00:29:57;96509.72;;;10.10;100.00
19023;BME280;35226;48.606;8.858;2023-04-08T00:32:24;96518.06;;;9.94;100.00
19023;BME280;35226;48.606;8.858;2023-04-08T00:34:51;96515.28;;;9.94;100.00
19023;BME280;35226;48.606;8.858;2023-04-08T00:37:16;96511.84;;;9.90;100.00
19023;BME280;35226;48.606;8.858;2023-04-08T00:39:42;96512.72;;;9.87;100.00
19023;BME280;35226;48.606;8.858;2023-04-08T00:42:08;96512.47;;;9.81;100.00
19023;BME280;35226;48.606;8.858;2023-04-08T00:44:34;96507.44;;;9.92;100.00
19023;BME280;35226;48.606;8.858;2023-04-08T00:46:59;96507.38;;;9.80;100.00
19023;BME280;35226;48.606;8.858;2023-04-08T00:49:25;96508.06;;;9.84;100.00
19023;BME280;35226;48.606;8.858;2023-04-08T00:51:52;96519.59;;;9.95;100.00
19023;BME280;35226;48.606;8.858;2023-04-08T00:54:18;96519.19;;;9.96;100.00
19023;BME280;35226;48.606;8.858;2023-04-08T00:56:44;96513.03;;;10.05;100.00
19023;BME280;35226;48.606;8.858;2023-04-08T00:59:10;96512.03;;;9.83;100.00
19023;BME280;35226;48.606;8.858;2023-04-08T01:04:06;96517.75;;;9.76;100.00
19023;BME280;35226;48.606;8.858;2023-04-08T01:06:42;96512.72;;;9.87;100.00
19023;BME280;35226;48.606;8.858;2023-04-08T01:09:12;96513.06;;;9.89;100.00
19023;BME280;35226;48.606;8.858;2023-04-08T01:11:41;96514.72;;;9.86;100.00
19023;BME280;35226;48.606;8.858;2023-04-08T01:14:08;96507.91;;;9.75;100.00
19023;BME280;35226;48.606;8.858;2023-04-08T01:16:39;96508.59;;;9.62;100.00
19023;BME280;35226;48.606;8.858;2023-04-08T01:19:07;96514.47;;;9.64;100.00
19023;BME280;35226;48.606;8.858;2023-04-08T01:21:36;96504.44;;;9.87;100.00
19023;BME280;35226;48.606;8.858;2023-04-08T01:24:23;96508.25;;;9.77;100.00
19023;BME280;35226;48.606;8.858;2023-04-08T01:26:50;96521.59;;;9.94;100.00
19023;BME280;35226;48.606;8.858;2023-04-08T01:29:17;96515.09;;;10.01;100.00
19023;BME280;35226;48.606;8.858;2023-04-08T01:31:44;96507.78;;;9.94;100.00
19023;BME280;35226;48.606;8.858;2023-04-08T01:34:12;96519.78;;;9.72;100.00
19023;BME280;35226;48.606;8.858;2023-04-08T01:36:41;96516.22;;;9.58;100.00
19023;BME280;35226;48.606;8.858;2023-04-08T01:39:08;96512.84;;;9.67;100.00
19023;BME280;35226;48.606;8.858;2023-04-08T01:41:35;96512.72;;;9.87;100.00
19023;BME280;35226;48.606;8.858;2023-04-08T01:44:03;96514.03;;;9.66;100.00
19023;BME280;35226;48.606;8.858;2023-04-08T01:46:30;96505.84;;;9.79;100.00
19023;BME280;35226;48.606;8.858;2023-04-08T01:48:57;96509.31;;;9.67;100.00
19023;BME280;35226;48.606;8.858;2023-04-08T01:51:24;96513.78;;;9.77;100.00
19023;BME280;35226;48.606;8.858;2023-04-08T01:53:51;96512.84;;;9.67;100.00
19023;BME280;35226;48.606;8.858;2023-04-08T01:56:20;96503.25;;;9.72;100.00
19023;BME280;35226;48.606;8.858;2023-04-08T01:58:50;96507.47;;;9.60;100.00
19023;BME280;35226;48.606;8.858;2023-04-08T02:01:19;96499.53;;;9.62;100.00
19023;BME280;35226;48.606;8.858;2023-04-08T02:03:46;96500.09;;;9.57;100.00
19023;BME280;35226;48.606;8.858;2023-04-08T02:06:12;96498.94;;;9.54;100.00
19023;BME280;35226;48.606;8.858;2023-04-08T02:08:38;96495.59;;;9.63;100.00
19023;BME280;35226;48.606;8.858;2023-04-08T02:11:04;96500.66;;;9.64;100.00
19023;BME280;35226;48.606;8.858;2023-04-08T02:13:31;96500.09;;;9.57;100.00
19023;BME280;35226;48.606;8.858;2023-04-08T02:16:05;96501.25;;;9.72;100.00
19023;BME280;35226;48.606;8.858;2023-04-08T02:18:34;96495.91;;;9.81;100.00
19023;BME280;35226;48.606;8.858;2023-04-08T02:21:13;96496.44;;;9.76;100.00
19023;BME280;35226;48.606;8.858;2023-04-08T02:23:41;96499.97;;;9.60;100.00
19023;BME280;35226;48.606;8.858;2023-04-08T02:26:14;96500.59;;;9.68;100.00
19023;BME280;35226;48.606;8.858;2023-04-08T02:28:41;96502.66;;;9.64;100.00
19023;BME280;35226;48.606;8.858;2023-04-08T02:31:11;96509.75;;;9.49;100.00
19023;BME280;35226;48.606;8.858;2023-04-08T02:33:43;96509.81;;;9.61;100.00
19023;BME280;35226;48.606;8.858;2023-04-08T02:36:10;96507.91;;;9.42;100.00
19023;BME280;35226;48.606;8.858;2023-04-08T02:38:36;96512.56;;;9.61;100.00
19023;BME280;35226;48.606;8.858;2023-04-08T02:41:02;96507.66;;;9.53;100.00
19023;BME280;35226;48.606;8.858;2023-04-08T02:43:27;96508.19;;;9.48;100.00
19023;BME280;35226;48.606;8.858;2023-04-08T02:45:57;96509.47;;;9.43;100.00
19023;BME280;35226;48.606;8.858;2023-04-08T02:48:29;96514.13;;;9.30;100.00
19023;BME280;35226;48.606;8.858;2023-04-08T02:50:54;96506.28;;;9.45;100.00
19023;BME280;35226;48.606;8.858;2023-04-08T02:53:22;96505.94;;;9.59;100.00
19023;BME280;35226;48.606;8.858;2023-04-08T02:55:47;96505.78;;;9.50;100.00
19023;BME280;35226;48.606;8.858;2023-04-08T02:58:13;96512.41;;;9.52;100.00
19023;BME280;35226;48.606;8.858;2023-04-08T03:00:39;96505.41;;;9.32;100.00
19023;BME280;35226;48.606;8.858;2023-04-08T03:03:04;96503.34;;;9.36;100.00
19023;BME280;35226;48.606;8.858;2023-04-08T03:05:31;96501.47;;;9.49;100.00
19023;BME280;35226;48.606;8.858;2023-04-08T03:07:57;96502.81;;;9.41;100.00
19023;BME280;35226;48.606;8.858;2023-04-08T03:10:22;96505.81;;;9.14;100.00
19023;BME280;35226;48.606;8.858;2023-04-08T03:12:48;96504.63;;;9.31;100.00
19023;BME280;35226;48.606;8.858;2023-04-08T03:15:14;96505.00;;;9.49;100.00
19023;BME280;35226;48.606;8.858;2023-04-08T03:17:39;96508.53;;;9.50;100.00
19023;BME280;35226;48.606;8.858;2023-04-08T03:20:06;96506.72;;;9.43;100.00
19023;BME280;35226;48.606;8.858;2023-04-08T03:22:32;96510.66;;;9.42;100.00
19023;BME280;35226;48.606;8.858;2023-04-08T03:24:58;96507.84;;;9.46;100.00
19023;BME280;35226;48.606;8.858;2023-04-08T03:27:24;96510.41;;;9.53;100.00
19023;BME280;35226;48.606;8.858;2023-04-08T03:29:50;96504.81;;;9.56;100.00
19023;BME280;35226;48.606;8.858;2023-04-08T03:32:15;96507.94;;;9.58;100.00
19023;BME280;35226;48.606;8.858;2023-04-08T03:34:41;96512.91;;;9.63;100.00
19023;BME280;35226;48.606;8.858;2023-04-08T03:37:07;96509.22;;;9.54;100.00
19023;BME280;35226;48.606;8.858;2023-04-08T03:39:32;96511.53;;;9.55;100.00
19023;BME280;35226;48.606;8.858;2023-04-08T03:41:58;96512.84;;;9.67;100.00
19023;BME280;35226;48.606;8.858;2023-04-08T03:44:25;96513.75;;;9.60;100.00
19023;BME280;35226;48.606;8.858;2023-04-08T03:46:51;96516.47;;;9.48;100.00
19023;BME280;35226;48.606;8.858;2023-04-08T03:49:16;96513.94;;;9.53;100.00
19023;BME280;35226;48.606;8.858;2023-04-08T03:51:42;96512.56;;;9.45;100.00
19023;BME280;35226;48.606;8.858;2023-04-08T03:54:07;96520.16;;;9.41;100.00
19023;BME280;35226;48.606;8.858;2023-04-08T03:56:33;96513.88;;;9.57;100.00
19023;BME280;35226;48.606;8.858;2023-04-08T03:58:59;96513.00;;;9.44;100.00
19023;BME280;35226;48.606;8.858;2023-04-08T04:01:24;96510.16;;;9.47;100.00
19023;BME280;35226;48.606;8.858;2023-04-08T04:03:50;96519.28;;;9.28;100.00
19023;BME280;35226;48.606;8.858;2023-04-08T04:06:15;96517.38;;;9.41;100.00
19023;BME280;35226;48.606;8.858;2023-04-08T04:08:41;96520.16;;;9.41;100.00
19023;BME280;35226;48.606;8.858;2023-04-08T04:11:06;96526.38;;;9.29;100.00
19023;BME280;35226;48.606;8.858;2023-04-08T04:13:32;96508.94;;;9.16;100.00
19023;BME280;35226;48.606;8.858;2023-04-08T04:15:57;96520.75;;;9.16;100.00
19023;BME280;35226;48.606;8.858;2023-04-08T04:18:23;96519.88;;;9.19;100.00
19023;BME280;35226;48.606;8.858;2023-04-08T04:20:51;96525.72;;;9.21;100.00
19023;BME280;35226;48.606;8.858;2023-04-08T04:23:17;96521.34;;;9.40;100.00
19023;BME280;35226;48.606;8.858;2023-04-08T04:25:42;96527.56;;;9.44;100.00
19023;BME280;35226;48.606;8.858;2023-04-08T04:28:08;96530.31;;;9.60;100.00
19023;BME280;35226;48.606;8.858;2023-04-08T04:30:40;96524.03;;;9.60;100.00
19023;BME280;35226;48.606;8.858;2023-04-08T04:33:06;96531.78;;;9.65;100.00
19023;BME280;35226;48.606;8.858;2023-04-08T04:35:32;96538.50;;;9.64;100.00
19023;BME280;35226;48.606;8.858;2023-04-08T04:37:58;96536.97;;;9.63;100.00
19023;BME280;35226;48.606;8.858;2023-04-08T04:40:24;96543.16;;;9.51;100.00
19023;BME280;35226;48.606;8.858;2023-04-08T04:42:49;96535.31;;;9.82;100.00
19023;BME280;35226;48.606;8.858;2023-04-08T04:45:15;96531.72;;;9.69;100.00
19023;BME280;35226;48.606;8.858;2023-04-08T04:47:40;96538.41;;;9.51;100.00
19023;BME280;35226;48.606;8.858;2023-04-08T04:50:06;96540.25;;;9.74;100.00
19023;BME280;35226;48.606;8.858;2023-04-08T04:52:32;96542.06;;;9.64;100.00
19023;BME280;35226;48.606;8.858;2023-04-08T04:54:57;96549.38;;;9.55;100.00
19023;BME280;35226;48.606;8.858;2023-04-08T04:57:23;96544.72;;;9.52;100.00
19023;BME280;35226;48.606;8.858;2023-04-08T04:59:49;96552.75;;;9.46;100.00
19023;BME280;35226;48.606;8.858;2023-04-08T05:02:14;96544.72;;;9.52;100.00
19023;BME280;35226;48.606;8.858;2023-04-08T05:04:40;96548.34;;;9.65;100.00
19023;BME280;35226;48.606;8.858;2023-04-08T05:07:06;96549.03;;;9.69;100.00
19023;BME280;35226;48.606;8.858;2023-04-08T05:09:31;96551.53;;;9.63;100.00
19023;BME280;35226;48.606;8.858;2023-04-08T05:11:57;96559.72;;;9.67;100.00
19023;BME280;35226;48.606;8.858;2023-04-08T05:14:22;96557.56;;;9.58;100.00
19023;BME280;35226;48.606;8.858;2023-04-08T05:16:48;96551.88;;;9.65;100.00
19023;BME280;35226;48.606;8.858;2023-04-08T05:19:13;96551.28;;;9.58;100.00
19023;BME280;35226;48.606;8.858;2023-04-08T05:21:39;96553.69;;;9.56;100.00
19023;BME280;35226;48.606;8.858;2023-04-08T05:24:04;96555.22;;;9.41;100.00
19023;BME280;35226;48.606;8.858;2023-04-08T05:26:30;96556.69;;;9.45;100.00
19023;BME280;35226;48.606;8.858;2023-04-08T05:28:56;96563.69;;;9.50;100.00
19023;BME280;35226;48.606;8.858;2023-04-08T05:31:21;96557.56;;;9.58;100.00
19023;BME280;35226;48.606;8.858;2023-04-08T05:33:47;96570.06;;;9.47;100.00
19023;BME280;35226;48.606;8.858;2023-04-08T05:36:13;96560.22;;;9.62;100.00
19023;BME280;35226;48.606;8.858;2023-04-08T05:38:39;96566.53;;;9.62;100.00
19023;BME280;35226;48.606;8.858;2023-04-08T05:41:05;96564.38;;;9.70;100.00
19023;BME280;35226;48.606;8.858;2023-04-08T05:43:34;96568.44;;;9.65;100.00
19023;BME280;35226;48.606;8.858;2023-04-08T05:46:05;96569.38;;;9.59;100.00
19023;BME280;35226;48.606;8.858;2023-04-08T05:48:31;96571.00;;;9.73;100.00
19023;BME280;35226;48.606;8.858;2023-04-08T05:50:57;96572.66;;;9.70;100.00
19023;BME280;35226;48.606;8.858;2023-04-08T05:53:22;96578.88;;;9.58;100.00
19023;BME280;35226;48.606;8.858;2023-04-08T05:55:49;96578.50;;;9.72;100.00
19023;BME280;35226;48.606;8.858;2023-04-08T05:58:14;96580.66;;;9.81;100.00
19023;BME280;35226;48.606;8.858;2023-04-08T06:00:40;96580.78;;;9.77;100.00
19023;BME280;35226;48.606;8.858;2023-04-08T06:03:05;96581.63;;;9.74;100.00
19023;BME280;35226;48.606;8.858;2023-04-08T06:05:31;96580.06;;;9.89;100.00
19023;BME280;35226;48.606;8.858;2023-04-08T06:07:57;96581.63;;;9.90;100.00
19023;BME280;35226;48.606;8.858;2023-04-08T06:10:22;96588.84;;;10.00;100.00
19023;BME280;35226;48.606;8.858;2023-04-08T06:12:47;96580.50;;;9.88;100.00
19023;BME280;35226;48.606;8.858;2023-04-08T06:15:13;96586.47;;;9.86;100.00
19023;BME280;35226;48.606;8.858;2023-04-08T06:17:42;96589.03;;;9.93;100.00
19023;BME280;35226;48.606;8.858;2023-04-08T06:20:07;96590.06;;;9.99;100.00
19023;BME280;35226;48.606;8.858;2023-04-08T06:22:36;96590.69;;;10.07;100.00
19023;BME280;35226;48.606;8.858;2023-04-08T06:25:02;96597.91;;;10.17;100.00
19023;BME280;35226;48.606;8.858;2023-04-08T06:27:28;96598.34;;;10.16;100.00
19023;BME280;35226;48.606;8.858;2023-04-08T06:29:53;96589.91;;;10.07;100.00
19023;BME280;35226;48.606;8.858;2023-04-08T06:32:20;96602.50;;;10.08;100.00
19023;BME280;35226;48.606;8.858;2023-04-08T06:34:46;96600.25;;;10.02;100.00
19023;BME280;35226;48.606;8.858;2023-04-08T06:37:12;96603.88;;;10.16;100.00
19023;BME280;35226;48.606;8.858;2023-04-08T06:39:38;96602.16;;;10.22;100.00
19023;BME280;35226;48.606;8.858;2023-04-08T06:42:03;96608.09;;;10.20;100.00
19023;BME280;35226;48.606;8.858;2023-04-08T06:45:04;96602.56;;;10.36;100.00
19023;BME280;35226;48.606;8.858;2023-04-08T06:47:30;96598.78;;;9.82;100.00
19023;BME280;35226;48.606;8.858;2023-04-08T06:49:55;96619.31;;;9.97;100.00
19023;BME280;35226;48.606;8.858;2023-04-08T06:52:21;96606.28;;;10.14;100.00
19023;BME280;35226;48.606;8.858;2023-04-08T06:54:47;96616.13;;;9.98;100.00
19023;BME280;35226;48.606;8.858;2023-04-08T06:57:12;96610.66;;;10.11;100.00
19023;BME280;35226;48.606;8.858;2023-04-08T06:59:38;96616.47;;;9.84;100.00
19023;BME280;35226;48.606;8.858;2023-04-08T07:02:03;96615.28;;;10.18;100.00
19023;BME280;35226;48.606;8.858;2023-04-08T07:04:29;96615.69;;;10.00;100.00
19023;BME280;35226;48.606;8.858;2023-04-08T07:06:54;96618.44;;;10.32;100.00
19023;BME280;35226;48.606;8.858;2023-04-08T07:09:20;96619.22;;;10.33;100.00
19023;BME280;35226;48.606;8.858;2023-04-08T07:11:45;96620.75;;;10.01;100.00
19023;BME280;35226;48.606;8.858;2023-04-08T07:14:11;96621.91;;;10.36;100.00
19023;BME280;35226;48.606;8.858;2023-04-08T07:16:36;96620.78;;;10.34;100.00
19023;BME280;35226;48.606;8.858;2023-04-08T07:19:02;96623.28;;;10.28;100.00
19023;BME280;35226;48.606;8.858;2023-04-08T07:21:27;96623.38;;;10.25;100.00
19023;BME280;35226;48.606;8.858;2023-04-08T07:23:54;96624.84;;;10.74;100.00
19023;BME280;35226;48.606;8.858;2023-04-08T07:26:20;96622.28;;;10.51;100.00
19023;BME280;35226;48.606;8.858;2023-04-08T07:28:46;96621.97;;;10.33;100.00
19023;BME280;35226;48.606;8.858;2023-04-08T07:31:14;96631.28;;;10.55;100.00
19023;BME280;35226;48.606;8.858;2023-04-08T07:33:41;96633.25;;;10.84;100.00
19023;BME280;35226;48.606;8.858;2023-04-08T07:36:08;96632.22;;;10.49;100.00
19023;BME280;35226;48.606;8.858;2023-04-08T07:38:34;96635.75;;;10.65;100.00
19023;BME280;35226;48.606;8.858;2023-04-08T07:41:00;96637.19;;;10.70;100.00
19023;BME280;35226;48.606;8.858;2023-04-08T07:43:26;96640.00;;;10.83;100.00
19023;BME280;35226;48.606;8.858;2023-04-08T07:45:52;96644.47;;;10.93;100.00
19023;BME280;35226;48.606;8.858;2023-04-08T07:48:17;96645.66;;;10.63;100.00
19023;BME280;35226;48.606;8.858;2023-04-08T07:50:43;96641.13;;;10.40;100.00
19023;BME280;35226;48.606;8.858;2023-04-08T07:53:10;96650.75;;;10.64;100.00
19023;BME280;35226;48.606;8.858;2023-04-08T07:55:36;96648.19;;;10.57;100.00
19023;BME280;35226;48.606;8.858;2023-04-08T07:58:01;96653.41;;;10.68;100.00
19023;BME280;35226;48.606;8.858;2023-04-08T08:00:27;96651.56;;;10.49;100.00
19023;BME280;35226;48.606;8.858;2023-04-08T08:02:54;96652.97;;;10.69;100.00
19023;BME280;35226;48.606;8.858;2023-04-08T08:05:20;96655.88;;;10.50;100.00
19023;BME280;35226;48.606;8.858;2023-04-08T08:07:46;96658.13;;;10.84;100.00
19023;BME280;35226;48.606;8.858;2023-04-08T08:10:11;96656.97;;;10.68;100.00
19023;BME280;35226;48.606;8.858;2023-04-08T08:12:37;96663.03;;;10.63;100.00
19023;BME280;35226;48.606;8.858;2023-04-08T08:15:03;96665.59;;;10.70;100.00
19023;BME280;35226;48.606;8.858;2023-04-08T08:17:28;96668.97;;;10.62;100.00
19023;BME280;35226;48.606;8.858;2023-04-08T08:19:58;96662.41;;;10.72;100.00
19023;BME280;35226;48.606;8.858;2023-04-08T08:22:23;96661.97;;;11.02;100.00
19023;BME280;35226;48.606;8.858;2023-04-08T08:24:54;96662.94;;;10.96;100.00
19023;BME280;35226;48.606;8.858;2023-04-08T08:27:20;96660.06;;;10.99;100.00
19023;BME280;35226;48.606;8.858;2023-04-08T08:29:46;96659.78;;;11.10;100.00
19023;BME280;35226;48.606;8.858;2023-04-08T08:32:11;96668.59;;;11.46;100.00
19023;BME280;35226;48.606;8.858;2023-04-08T08:34:37;96671.91;;;11.41;100.00
19023;BME280;35226;48.606;8.858;2023-04-08T08:37:03;96674.47;;;11.07;100.00
19023;BME280;35226;48.606;8.858;2023-04-08T08:39:29;96677.44;;;11.41;100.00
19023;BME280;35226;48.606;8.858;2023-04-08T08:41:55;96677.97;;;11.24;100.00
19023;BME280;35226;48.606;8.858;2023-04-08T08:44:22;96680.16;;;11.16;100.00
19023;BME280;35226;48.606;8.858;2023-04-08T08:46:47;96674.16;;;11.18;100.00
19023;BME280;35226;48.606;8.858;2023-04-08T08:49:13;96679.16;;;11.23;100.00
19023;BME280;35226;48.606;8.858;2023-04-08T08:51:39;96678.91;;;11.59;100.00
19023;BME280;35226;48.606;8.858;2023-04-08T08:54:06;96681.50;;;11.37;100.00
19023;BME280;35226;48.606;8.858;2023-04-08T08:56:32;96684.66;;;11.10;100.00
19023;BME280;35226;48.606;8.858;2023-04-08T08:58:58;96683.53;;;11.49;100.00
19023;BME280;35226;48.606;8.858;2023-04-08T09:01:38;96684.69;;;11.64;100.00
19023;BME280;35226;48.606;8.858;2023-04-08T09:04:13;96685.91;;;11.63;100.00
19023;BME280;35226;48.606;8.858;2023-04-08T09:06:46;96680.84;;;12.12;100.00
19023;BME280;35226;48.606;8.858;2023-04-08T09:09:14;96679.63;;;11.75;100.00
19023;BME280;35226;48.606;8.858;2023-04-08T09:11:44;96681.22;;;11.35;100.00
19023;BME280;35226;48.606;8.858;2023-04-08T09:14:20;96689.56;;;11.73;100.00
19023;BME280;35226;48.606;8.858;2023-04-08T09:16:46;96688.81;;;12.23;100.00
19023;BME280;35226;48.606;8.858;2023-04-08T09:19:12;96697.69;;;12.05;100.00
19023;BME280;35226;48.606;8.858;2023-04-08T09:21:38;96682.63;;;12.06;100.00
19023;BME280;35226;48.606;8.858;2023-04-08T09:24:06;96685.63;;;12.12;100.00
19023;BME280;35226;48.606;8.858;2023-04-08T09:26:32;96686.84;;;12.11;100.00
19023;BME280;35226;48.606;8.858;2023-04-08T09:29:08;96683.94;;;12.14;100.00
19023;BME280;35226;48.606;8.858;2023-04-08T09:31:38;96695.94;;;11.44;100.00
19023;BME280;35226;48.606;8.858;2023-04-08T09:34:14;96688.16;;;12.06;100.00
19023;BME280;35226;48.606;8.858;2023-04-08T09:36:45;96700.44;;;12.05;100.00
19023;BME280;35226;48.606;8.858;2023-04-08T09:39:10;96695.97;;;11.70;100.00
19023;BME280;35226;48.606;8.858;2023-04-08T09:41:37;96697.25;;;11.81;100.00
19023;BME280;35226;48.606;8.858;2023-04-08T09:44:08;96685.94;;;12.14;100.00
19023;BME280;35226;48.606;8.858;2023-04-08T09:49:11;96686.44;;;12.59;100.00
19023;BME280;35226;48.606;8.858;2023-04-08T09:52:06;96689.03;;;12.41;100.00
19023;BME280;35226;48.606;8.858;2023-04-08T09:54:51;96684.34;;;12.51;100.00
19023;BME280;35226;48.606;8.858;2023-04-08T09:57:26;96687.72;;;12.20;100.00
19023;BME280;35226;48.606;8.858;2023-04-08T10:00:00;96691.63;;;12.70;100.00
19023;BME280;35226;48.606;8.858;2023-04-08T10:05:43;96686.19;;;13.01;100.00
19023;BME280;35226;48.606;8.858;2023-04-08T10:08:10;96692.81;;;13.04;100.00
19023;BME280;35226;48.606;8.858;2023-04-08T10:10:40;96687.75;;;13.24;100.00
19023;BME280;35226;48.606;8.858;2023-04-08T10:13:06;96685.63;;;13.50;95.46
19023;BME280;35226;48.606;8.858;2023-04-08T10:15:34;96682.94;;;13.37;92.13
19023;BME280;35226;48.606;8.858;2023-04-08T10:22:58;96686.06;;;13.70;99.08
19023;BME280;35226;48.606;8.858;2023-04-08T10:25:34;96686.16;;;13.57;96.34
19023;BME280;35226;48.606;8.858;2023-04-08T10:28:01;96681.19;;;13.30;88.49
19023;BME280;35226;48.606;8.858;2023-04-08T10:30:56;96674.81;;;13.74;85.77
19023;BME280;35226;48.606;8.858;2023-04-08T10:33:32;96681.09;;;13.65;77.61
19023;BME280;35226;48.606;8.858;2023-04-08T10:38:40;96678.63;;;13.67;81.57
19023;BME280;35226;48.606;8.858;2023-04-08T10:41:12;96682.13;;;13.58;85.94
19023;BME280;35226;48.606;8.858;2023-04-08T10:43:38;96676.72;;;13.86;86.62
19023;BME280;35226;48.606;8.858;2023-04-08T10:46:04;96681.22;;;13.92;87.92
19023;BME280;35226;48.606;8.858;2023-04-08T10:48:29;96688.47;;;13.90;83.15
19023;BME280;35226;48.606;8.858;2023-04-08T10:50:59;96687.66;;;13.80;75.52
19023;BME280;35226;48.606;8.858;2023-04-08T10:53:32;96682.72;;;13.84;72.09
19023;BME280;35226;48.606;8.858;2023-04-08T10:56:13;96677.59;;;13.52;70.43
19023;BME280;35226;48.606;8.858;2023-04-08T10:58:50;96683.00;;;14.08;75.22
19023;BME280;35226;48.606;8.858;2023-04-08T11:01:17;96680.31;;;13.95;75.85
19023;BME280;35226;48.606;8.858;2023-04-08T11:03:42;96683.72;;;13.38;65.12
19023;BME280;35226;48.606;8.858;2023-04-08T11:06:08;96678.13;;;13.59;65.53
19023;BME280;35226;48.606;8.858;2023-04-08T11:08:35;96676.00;;;13.42;61.55
19023;BME280;35226;48.606;8.858;2023-04-08T11:11:04;96678.56;;;13.80;66.33
19023;BME280;35226;48.606;8.858;2023-04-08T11:13:34;96679.78;;;13.79;65.62
19023;BME280;35226;48.606;8.858;2023-04-08T11:16:03;96679.41;;;13.98;68.47
19023;BME280;35226;48.606;8.858;2023-04-08T11:18:30;96675.22;;;13.94;69.35
19023;BME280;35226;48.606;8.858;2023-04-08T11:20:56;96670.03;;;14.14;72.59
19023;BME280;35226;48.606;8.858;2023-04-08T11:23:25;96676.75;;;13.95;71.73
19023;BME280;35226;48.606;8.858;2023-04-08T11:25:51;96675.03;;;13.57;68.60
19023;BME280;35226;48.606;8.858;2023-04-08T11:28:17;96674.84;;;13.83;70.67
19023;BME280;35226;48.606;8.858;2023-04-08T11:30:44;96676.31;;;13.96;72.03
19023;BME280;35226;48.606;8.858;2023-04-08T11:33:09;96672.31;;;13.66;74.36
19023;BME280;35226;48.606;8.858;2023-04-08T11:35:42;96672.72;;;13.34;74.34
19023;BME280;35226;48.606;8.858;2023-04-08T11:38:09;96673.78;;;13.27;75.21
19023;BME280;35226;48.606;8.858;2023-04-08T11:40:35;96667.84;;;12.82;73.72
19023;BME280;35226;48.606;8.858;2023-04-08T11:43:11;96670.94;;;13.18;76.30
19023;BME280;35226;48.606;8.858;2023-04-08T11:45:38;96665.78;;;13.29;74.09
19023;BME280;35226;48.606;8.858;2023-04-08T11:48:12;96673.38;;;13.38;75.60
19023;BME280;35226;48.606;8.858;2023-04-08T11:50:39;96669.53;;;13.66;73.57
19023;BME280;35226;48.606;8.858;2023-04-08T11:53:15;96671.44;;;13.26;74.36
19023;BME280;35226;48.606;8.858;2023-04-08T11:55:42;96682.47;;;13.39;74.70
19023;BME280;35226;48.606;8.858;2023-04-08T11:58:07;96680.81;;;13.07;73.89
19023;BME280;35226;48.606;8.858;2023-04-08T12:00:33;96685.94;;;12.74;78.07
19023;BME280;35226;48.606;8.858;2023-04-08T12:02:58;96681.66;;;12.94;78.16
19023;BME280;35226;48.606;8.858;2023-04-08T12:05:24;96681.44;;;13.23;76.67
19023;BME280;35226;48.606;8.858;2023-04-08T12:07:50;96684.66;;;13.44;78.13
19023;BME280;35226;48.606;8.858;2023-04-08T12:10:16;96684.97;;;13.02;80.20
19023;BME280;35226;48.606;8.858;2023-04-08T12:12:41;96682.47;;;13.39;82.60
19023;BME280;35226;48.606;8.858;2023-04-08T12:15:07;96688.53;;;13.24;80.07
19023;BME280;35226;48.606;8.858;2023-04-08T12:17:34;96683.13;;;13.21;81.91
19023;BME280;35226;48.606;8.858;2023-04-08T12:20:00;96680.81;;;13.19;79.59
19023;BME280;35226;48.606;8.858;2023-04-08T12:22:26;96679.09;;;13.00;80.87
19023;BME280;35226;48.606;8.858;2023-04-08T12:24:52;96683.91;;;13.21;85.45
19023;BME280;35226;48.606;8.858;2023-04-08T12:27:17;96686.81;;;13.05;84.79
19023;BME280;35226;48.606;8.858;2023-04-08T12:29:43;96690.41;;;12.93;83.99
19023;BME280;35226;48.606;8.858;2023-04-08T12:32:08;96685.28;;;13.04;86.09
19023;BME280;35226;48.606;8.858;2023-04-08T12:34:34;96683.44;;;13.23;86.00
19023;BME280;35226;48.606;8.858;2023-04-08T12:37:00;96689.44;;;12.87;85.69
19023;BME280;35226;48.606;8.858;2023-04-08T12:39:26;96679.78;;;12.91;86.63
19023;BME280;35226;48.606;8.858;2023-04-08T12:41:53;96681.41;;;13.02;83.93
19023;BME280;35226;48.606;8.858;2023-04-08T12:44:18;96684.41;;;12.94;85.84
19023;BME280;35226;48.606;8.858;2023-04-08T12:46:44;96679.66;;;13.29;85.50
19023;BME280;35226;48.606;8.858;2023-04-08T12:49:09;96678.16;;;13.38;85.92
19023;BME280;35226;48.606;8.858;2023-04-08T12:51:36;96685.28;;;13.04;82.57
19023;BME280;35226;48.606;8.858;2023-04-08T12:54:02;96683.03;;;13.12;83.09
19023;BME280;35226;48.606;8.858;2023-04-08T12:56:30;96683.41;;;13.01;85.45
19023;BME280;35226;48.606;8.858;2023-04-08T12:58:57;96683.47;;;13.10;79.83
19023;BME280;35226;48.606;8.858;2023-04-08T13:01:23;96682.25;;;13.11;81.55
19023;BME280;35226;48.606;8.858;2023-04-08T13:03:49;96679.00;;;13.13;76.70
19023;BME280;35226;48.606;8.858;2023-04-08T13:06:14;96685.97;;;13.30;78.66
19023;BME280;35226;48.606;8.858;2023-04-08T13:08:40;96675.59;;;13.09;73.97
19023;BME280;35226;48.606;8.858;2023-04-08T13:11:06;96681.91;;;13.22;72.29
19023;BME280;35226;48.606;8.858;2023-04-08T13:13:32;96683.88;;;13.43;72.11